Riley, Oregon
Current Conditions -  °F | °C
As of 12:53 AM on Sunday 26 Oct 2014 (Local Time) from KBNO Reporting Station
Overcast Overcast  
Wind Chill: 38°   Ceiling: 11000
Heat Index: 43°   Visibility: 10mi
Dew Point: 36°   Wind: 8mph
Humidity: 76%   Direction: 220°SW
Pressure: 29.99"   Gusts: NA
Location:  43.54°N, 119.51°W
Report Text: KBNO 260753Z AUTO 22007KT 10SM SCT041 OVC110 06/02 A2999 RMK AO2 SLP145 T00610022 401830000
Loading
Personal Weather Stations






























Interactive Weather Map
Tropical Storm Tracking
New forecast layout! Learn more

10-Day Weather Forecast

Advertisements
Track Severe Weather on mobile